sensor_id;sensor_type;location;lat;lon;timestamp;temperature;humidity
55365;DHT22;41245;45.384;20.390;2024-02-14T03:41:22;179.80;6502.40
55365;DHT22;41245;45.384;20.390;2024-02-14T03:43:48;179.60;6502.40
55365;DHT22;41245;45.384;20.390;2024-02-14T03:46:18;179.50;6502.40
55365;DHT22;41245;45.384;20.390;2024-02-14T03:48:46;179.50;6502.40
55365;DHT22;41245;45.384;20.390;2024-02-14T03:51:13;179.40;6502.40
55365;DHT22;41245;45.384;20.390;2024-02-14T03:53:39;179.40;6502.40
55365;DHT22;41245;45.384;20.390;2024-02-14T03:56:05;179.30;6502.40
55365;DHT22;41245;45.384;20.390;2024-02-14T03:58:33;179.20;6502.40
55365;DHT22;41245;45.384;20.390;2024-02-14T04:01:03;154.50;6502.40
55365;DHT22;41245;45.384;20.390;2024-02-14T04:03:29;154.50;6502.40
55365;DHT22;41245;45.384;20.390;2024-02-14T04:05:55;154.40;6502.40
55365;DHT22;41245;45.384;20.390;2024-02-14T04:08:21;154.40;6502.40
55365;DHT22;41245;45.384;20.390;2024-02-14T04:10:47;154.20;6502.40
55365;DHT22;41245;45.384;20.390;2024-02-14T04:13:16;154.40;6502.40
55365;DHT22;41245;45.384;20.390;2024-02-14T04:15:42;154.30;6502.40
55365;DHT22;41245;45.384;20.390;2024-02-14T04:18:12;154.30;6502.40
55365;DHT22;41245;45.384;20.390;2024-02-14T04:20:38;154.20;6502.40
55365;DHT22;41245;45.384;20.390;2024-02-14T15:32:46;281.60;6528.00
55365;DHT22;41245;45.384;20.390;2024-02-14T15:35:40;256.80;6502.40
55365;DHT22;41245;45.384;20.390;2024-02-14T15:38:07;256.60;6502.40
55365;DHT22;41245;45.384;20.390;2024-02-14T15:40:33;256.50;6502.40
55365;DHT22;41245;45.384;20.390;2024-02-14T15:43:00;256.50;6502.40
55365;DHT22;41245;45.384;20.390;2024-02-14T15:45:28;256.30;6502.40
55365;DHT22;41245;45.384;20.390;2024-02-14T15:47:53;256.30;6528.00
55365;DHT22;41245;45.384;20.390;2024-02-14T15:50:19;256.30;6502.40
55365;DHT22;41245;45.384;20.390;2024-02-14T15:52:45;256.40;6502.40
55365;DHT22;41245;45.384;20.390;2024-02-14T15:55:11;256.30;6502.40
55365;DHT22;41245;45.384;20.390;2024-02-14T15:57:37;256.20;6502.40
55365;DHT22;41245;45.384;20.390;2024-02-14T16:00:03;256.10;6502.40
55365;DHT22;41245;45.384;20.390;2024-02-14T16:44:07;230.80;6502.40
55365;DHT22;41245;45.384;20.390;2024-02-14T16:46:33;230.60;6502.40
55365;DHT22;41245;45.384;20.390;2024-02-14T16:48:59;230.40;6502.40
55365;DHT22;41245;45.384;20.390;2024-02-14T16:51:24;230.40;6502.40
55365;DHT22;41245;45.384;20.390;2024-02-14T16:53:50;230.40;6502.40
55365;DHT22;41245;45.384;20.390;2024-02-14T16:56:16;205.60;6502.40
55365;DHT22;41245;45.384;20.390;2024-02-14T16:58:43;205.60;6502.40
55365;DHT22;41245;45.384;20.390;2024-02-14T17:37:57;205.00;6502.40
55365;DHT22;41245;45.384;20.390;2024-02-14T17:40:23;204.80;6502.40
55365;DHT22;41245;45.384;20.390;2024-02-14T17:42:48;180.10;6502.40
55365;DHT22;41245;45.384;20.390;2024-02-14T17:45:14;180.10;6502.40
55365;DHT22;41245;45.384;20.390;2024-02-14T17:47:40;180.10;6502.40
55365;DHT22;41245;45.384;20.390;2024-02-14T17:50:06;180.10;6502.40
55365;DHT22;41245;45.384;20.390;2024-02-14T17:52:32;180.00;6502.40
55365;DHT22;41245;45.384;20.390;2024-02-14T17:54:58;179.90;6502.40
55365;DHT22;41245;45.384;20.390;2024-02-14T17:57:25;179.90;6502.40
55365;DHT22;41245;45.384;20.390;2024-02-14T17:59:51;179.80;6502.40
55365;DHT22;41245;45.384;20.390;2024-02-14T18:02:17;179.80;6502.40
55365;DHT22;41245;45.384;20.390;2024-02-14T18:04:43;179.80;6502.40
55365;DHT22;41245;45.384;20.390;2024-02-14T18:07:09;179.70;6502.40
55365;DHT22;41245;45.384;20.390;2024-02-14T18:09:35;179.70;6502.40
55365;DHT22;41245;45.384;20.390;2024-02-14T18:12:02;179.70;6502.40
55365;DHT22;41245;45.384;20.390;2024-02-14T18:14:30;179.80;6502.40
55365;DHT22;41245;45.384;20.390;2024-02-14T18:16:56;179.70;6502.40
55365;DHT22;41245;45.384;20.390;2024-02-14T18:19:23;179.60;6502.40
55365;DHT22;41245;45.384;20.390;2024-02-14T18:38:59;179.60;6502.40
55365;DHT22;41245;45.384;20.390;2024-02-14T18:41:25;179.40;6502.40
55365;DHT22;41245;45.384;20.390;2024-02-14T18:43:51;179.30;6502.40
55365;DHT22;41245;45.384;20.390;2024-02-14T18:46:17;179.20;6502.40
55365;DHT22;41245;45.384;20.390;2024-02-14T18:48:43;179.20;6502.40
55365;DHT22;41245;45.384;20.390;2024-02-14T18:51:09;154.50;6502.40
55365;DHT22;41245;45.384;20.390;2024-02-14T18:53:35;154.50;6502.40
55365;DHT22;41245;45.384;20.390;2024-02-14T18:56:00;154.50;6502.40
55365;DHT22;41245;45.384;20.390;2024-02-14T18:58:26;154.50;6502.40
55365;DHT22;41245;45.384;20.390;2024-02-14T19:00:52;154.40;6502.40
55365;DHT22;41245;45.384;20.390;2024-02-14T19:03:19;154.40;6502.40
55365;DHT22;41245;45.384;20.390;2024-02-14T19:05:45;154.40;6502.40
55365;DHT22;41245;45.384;20.390;2024-02-14T19:08:11;154.40;6502.40
55365;DHT22;41245;45.384;20.390;2024-02-14T19:10:37;154.40;6502.40
55365;DHT22;41245;45.384;20.390;2024-02-14T19:13:04;154.40;6502.40
55365;DHT22;41245;45.384;20.390;2024-02-14T19:15:30;154.40;6502.40
55365;DHT22;41245;45.384;20.390;2024-02-14T19:17:56;154.40;6502.40
55365;DHT22;41245;45.384;20.390;2024-02-14T19:20:23;154.10;6502.40
55365;DHT22;41245;45.384;20.390;2024-02-14T19:22:49;154.30;6502.40
55365;DHT22;41245;45.384;20.390;2024-02-14T19:25:15;154.30;6502.40
55365;DHT22;41245;45.384;20.390;2024-02-14T19:27:41;154.20;6502.40
55365;DHT22;41245;45.384;20.390;2024-02-14T19:30:06;154.40;6502.40
55365;DHT22;41245;45.384;20.390;2024-02-14T19:32:33;154.20;6502.40
55365;DHT22;41245;45.384;20.390;2024-02-14T19:35:04;154.20;6502.40
55365;DHT22;41245;45.384;20.390;2024-02-14T19:37:30;154.20;6502.40
55365;DHT22;41245;45.384;20.390;2024-02-14T19:39:57;154.20;6502.40
55365;DHT22;41245;45.384;20.390;2024-02-14T19:42:23;154.20;6502.40
55365;DHT22;41245;45.384;20.390;2024-02-14T19:44:50;154.10;6502.40
55365;DHT22;41245;45.384;20.390;2024-02-14T19:47:16;154.10;6502.40
55365;DHT22;41245;45.384;20.390;2024-02-14T19:49:42;154.10;6502.40
55365;DHT22;41245;45.384;20.390;2024-02-14T19:52:07;154.00;6502.40
55365;DHT22;41245;45.384;20.390;2024-02-14T19:54:37;154.00;6502.40
55365;DHT22;41245;45.384;20.390;2024-02-14T19:57:02;154.00;6502.40
55365;DHT22;41245;45.384;20.390;2024-02-14T19:59:29;153.90;6502.40
55365;DHT22;41245;45.384;20.390;2024-02-14T20:01:55;154.00;6502.40
55365;DHT22;41245;45.384;20.390;2024-02-14T20:04:21;153.90;6502.40
55365;DHT22;41245;45.384;20.390;2024-02-14T20:06:47;153.90;6502.40
55365;DHT22;41245;45.384;20.390;2024-02-14T20:09:13;154.00;6502.40
55365;DHT22;41245;45.384;20.390;2024-02-14T20:11:39;153.90;6502.40
55365;DHT22;41245;45.384;20.390;2024-02-14T20:14:05;153.90;6502.40
55365;DHT22;41245;45.384;20.390;2024-02-14T20:16:31;153.80;6502.40
55365;DHT22;41245;45.384;20.390;2024-02-14T20:18:59;153.80;6502.40
55365;DHT22;41245;45.384;20.390;2024-02-14T20:21:24;153.80;6502.40
55365;DHT22;41245;45.384;20.390;2024-02-14T20:23:52;153.70;6502.40
55365;DHT22;41245;45.384;20.390;2024-02-14T20:26:17;153.70;6502.40
55365;DHT22;41245;45.384;20.390;2024-02-14T20:28:43;153.70;6502.40
55365;DHT22;41245;45.384;20.390;2024-02-14T20:31:09;153.60;6502.40
55365;DHT22;41245;45.384;20.390;2024-02-14T20:33:35;153.60;6502.40
55365;DHT22;41245;45.384;20.390;2024-02-14T20:36:01;128.90;6502.40
55365;DHT22;41245;45.384;20.390;2024-02-14T20:38:27;128.90;6502.40
55365;DHT22;41245;45.384;20.390;2024-02-14T20:40:54;128.80;6502.40
55365;DHT22;41245;45.384;20.390;2024-02-14T20:43:20;128.60;6502.40
55365;DHT22;41245;45.384;20.390;2024-02-14T20:45:47;128.60;6502.40
55365;DHT22;41245;45.384;20.390;2024-02-14T20:48:13;128.60;6502.40
55365;DHT22;41245;45.384;20.390;2024-02-14T20:50:40;128.60;6502.40
55365;DHT22;41245;45.384;20.390;2024-02-14T20:53:07;128.60;6502.40
55365;DHT22;41245;45.384;20.390;2024-02-14T20:55:33;128.60;6502.40
55365;DHT22;41245;45.384;20.390;2024-02-14T20:58:00;128.60;6502.40
55365;DHT22;41245;45.384;20.390;2024-02-14T21:00:25;128.50;6502.40
55365;DHT22;41245;45.384;20.390;2024-02-14T21:02:51;128.50;6502.40
55365;DHT22;41245;45.384;20.390;2024-02-14T21:05:18;128.50;6502.40
55365;DHT22;41245;45.384;20.390;2024-02-14T21:07:43;128.50;6502.40
55365;DHT22;41245;45.384;20.390;2024-02-14T21:10:10;128.40;6502.40
55365;DHT22;41245;45.384;20.390;2024-02-14T21:12:36;128.40;6502.40
55365;DHT22;41245;45.384;20.390;2024-02-14T21:15:02;128.40;6502.40
55365;DHT22;41245;45.384;20.390;2024-02-14T21:17:28;128.40;6502.40
55365;DHT22;41245;45.384;20.390;2024-02-14T21:19:54;128.30;6502.40
55365;DHT22;41245;45.384;20.390;2024-02-14T21:22:20;128.30;6502.40
55365;DHT22;41245;45.384;20.390;2024-02-14T21:24:46;128.20;6502.40
55365;DHT22;41245;45.384;20.390;2024-02-14T21:27:12;128.20;6502.40
55365;DHT22;41245;45.384;20.390;2024-02-14T21:29:40;128.20;6502.40
55365;DHT22;41245;45.384;20.390;2024-02-14T21:32:06;128.20;6502.40
55365;DHT22;41245;45.384;20.390;2024-02-14T21:34:31;128.20;6502.40
55365;DHT22;41245;45.384;20.390;2024-02-14T21:36:58;128.20;6502.40
55365;DHT22;41245;45.384;20.390;2024-02-14T21:39:26;128.20;6502.40
55365;DHT22;41245;45.384;20.390;2024-02-14T21:41:52;128.20;6502.40
55365;DHT22;41245;45.384;20.390;2024-02-14T21:44:18;128.20;6502.40
55365;DHT22;41245;45.384;20.390;2024-02-14T21:46:46;128.20;6502.40
55365;DHT22;41245;45.384;20.390;2024-02-14T21:49:12;128.20;6502.40
55365;DHT22;41245;45.384;20.390;2024-02-14T21:51:44;128.20;6502.40
55365;DHT22;41245;45.384;20.390;2024-02-14T21:54:10;128.30;6502.40
55365;DHT22;41245;45.384;20.390;2024-02-14T21:56:36;128.20;6502.40
55365;DHT22;41245;45.384;20.390;2024-02-14T21:59:02;128.20;6502.40
55365;DHT22;41245;45.384;20.390;2024-02-14T22:01:28;128.20;6502.40
55365;DHT22;41245;45.384;20.390;2024-02-14T22:03:53;128.20;6502.40
55365;DHT22;41245;45.384;20.390;2024-02-14T22:06:19;128.30;6502.40
55365;DHT22;41245;45.384;20.390;2024-02-14T22:08:45;128.30;6502.40
55365;DHT22;41245;45.384;20.390;2024-02-14T22:11:12;128.30;6502.40
55365;DHT22;41245;45.384;20.390;2024-02-14T22:13:41;128.30;6502.40
55365;DHT22;41245;45.384;20.390;2024-02-14T22:16:06;128.20;6502.40
55365;DHT22;41245;45.384;20.390;2024-02-14T22:18:38;128.20;6502.40
55365;DHT22;41245;45.384;20.390;2024-02-14T22:21:05;128.20;6502.40
55365;DHT22;41245;45.384;20.390;2024-02-14T22:23:31;128.20;6502.40
55365;DHT22;41245;45.384;20.390;2024-02-14T22:25:57;128.10;6502.40
55365;DHT22;41245;45.384;20.390;2024-02-14T22:28:23;128.20;6502.40
55365;DHT22;41245;45.384;20.390;2024-02-14T22:30:49;128.10;6502.40
55365;DHT22;41245;45.384;20.390;2024-02-14T22:33:15;128.00;6502.40
55365;DHT22;41245;45.384;20.390;2024-02-14T22:35:43;128.00;6502.40
55365;DHT22;41245;45.384;20.390;2024-02-14T22:38:08;128.00;6502.40
55365;DHT22;41245;45.384;20.390;2024-02-14T23:05:03;128.30;6502.40
55365;DHT22;41245;45.384;20.390;2024-02-14T23:17:13;128.20;6502.40
55365;DHT22;41245;45.384;20.390;2024-02-14T23:56:17;128.10;6502.40
55365;DHT22;41245;45.384;20.390;2024-02-14T23:58:43;128.00;6502.40
